createdAt,value
2022-12-08T00:01:32.422Z,13.83
2022-12-08T00:04:01.267Z,13.07
2022-12-08T00:06:47.984Z,13.83
2022-12-08T00:09:23.348Z,13.50
2022-12-08T00:11:54.055Z,13.90
2022-12-08T00:14:24.040Z,13.50
2022-12-08T00:16:52.420Z,14.50
2022-12-08T00:19:20.734Z,13.57
2022-12-08T00:21:49.142Z,12.10
2022-12-08T00:24:18.527Z,13.60
2022-12-08T00:26:46.997Z,13.43
2022-12-08T00:29:17.696Z,14.07
2022-12-08T00:31:46.341Z,13.33
2022-12-08T00:34:14.944Z,13.27
2022-12-08T00:36:43.251Z,13.90
2022-12-08T00:39:12.371Z,11.87
2022-12-08T00:41:58.377Z,10.93
2022-12-08T00:44:28.201Z,12.83
2022-12-08T00:46:56.556Z,11.60
2022-12-08T00:49:24.878Z,11.50
2022-12-08T00:51:54.445Z,11.57
2022-12-08T00:54:23.334Z,13.03
2022-12-08T00:56:51.641Z,11.67
2022-12-08T00:59:19.938Z,9.93
2022-12-08T01:01:49.815Z,12.40
2022-12-08T01:04:19.503Z,11.57
2022-12-08T01:06:48.302Z,12.90
2022-12-08T01:09:17.134Z,12.93
2022-12-08T01:11:45.711Z,12.57
2022-12-08T01:14:14.292Z,12.00
2022-12-08T01:16:42.605Z,11.47
2022-12-08T01:19:13.571Z,11.83
2022-12-08T01:21:41.820Z,10.13
2022-12-08T01:24:12.097Z,11.50
2022-12-08T01:26:40.321Z,12.30
2022-12-08T01:29:08.713Z,11.97
2022-12-08T01:31:36.942Z,13.37
2022-12-08T01:34:05.411Z,12.17
2022-12-08T01:36:37.088Z,13.27
2022-12-08T01:39:06.657Z,12.53
2022-12-08T01:41:36.028Z,12.03
2022-12-08T01:44:05.854Z,12.90
2022-12-08T01:46:34.877Z,12.73
2022-12-08T01:49:05.017Z,14.03
2022-12-08T01:51:37.013Z,11.57
2022-12-08T01:54:05.879Z,12.13
2022-12-08T01:56:37.292Z,12.30
2022-12-08T01:59:05.599Z,11.73
2022-12-08T02:01:33.991Z,11.87
2022-12-08T02:04:04.123Z,12.73
2022-12-08T02:06:35.537Z,12.73
2022-12-08T02:09:05.445Z,12.83
2022-12-08T02:11:33.754Z,11.77
2022-12-08T02:14:02.559Z,11.20
2022-12-08T02:16:36.172Z,11.57
2022-12-08T02:22:02.920Z,10.80
2022-12-08T02:24:37.365Z,10.60
2022-12-08T02:27:13.246Z,11.27
2022-12-08T02:29:51.217Z,10.40
2022-12-08T02:32:26.444Z,11.50
2022-12-08T02:34:59.303Z,11.70
2022-12-08T02:37:36.104Z,10.60
2022-12-08T02:40:08.719Z,11.97
2022-12-08T02:42:39.142Z,11.87
2022-12-08T02:45:10.114Z,14.07
2022-12-08T02:47:38.781Z,13.93
2022-12-08T02:50:09.402Z,13.50
2022-12-08T02:52:41.746Z,14.30
2022-12-08T02:55:13.606Z,13.00
2022-12-08T02:57:47.035Z,10.33
2022-12-08T03:00:17.481Z,14.47
2022-12-08T03:02:50.361Z,13.63
2022-12-08T03:05:30.410Z,11.50
2022-12-08T03:08:02.447Z,13.47
2022-12-08T03:10:34.425Z,12.40
2022-12-08T03:13:04.531Z,13.70
2022-12-08T03:15:33.383Z,14.67
2022-12-08T03:18:01.867Z,13.90
2022-12-08T03:20:32.133Z,13.63
2022-12-08T03:23:01.703Z,15.20
2022-12-08T03:25:32.833Z,16.90
2022-12-08T03:28:01.495Z,18.47
2022-12-08T03:30:31.218Z,15.90
2022-12-08T03:33:03.823Z,15.97
2022-12-08T03:35:35.215Z,17.80
2022-12-08T03:38:04.519Z,16.60
2022-12-08T03:40:32.940Z,16.03
2022-12-08T03:43:01.230Z,18.70
2022-12-08T03:45:29.444Z,18.03
2022-12-08T03:47:58.007Z,18.57
2022-12-08T03:50:26.613Z,18.57
2022-12-08T03:52:56.215Z,17.10
2022-12-08T03:55:24.508Z,18.73
2022-12-08T03:57:52.712Z,18.87
2022-12-08T04:00:21.108Z,18.17
2022-12-08T04:02:49.391Z,18.13
2022-12-08T04:05:17.695Z,18.57
2022-12-08T04:07:45.995Z,15.63
2022-12-08T04:10:15.644Z,17.90
2022-12-08T04:12:43.866Z,16.97
2022-12-08T04:15:12.710Z,17.73
2022-12-08T04:17:40.928Z,19.20
2022-12-08T04:20:09.271Z,16.40
2022-12-08T04:22:37.483Z,18.27
2022-12-08T04:25:06.038Z,16.80
2022-12-08T04:27:35.701Z,16.33
2022-12-08T04:30:04.146Z,20.20
2022-12-08T04:32:32.646Z,17.10
2022-12-08T04:35:00.861Z,15.90
2022-12-08T04:37:29.910Z,18.53
2022-12-08T04:39:58.175Z,18.50
2022-12-08T04:42:26.462Z,18.93
2022-12-08T04:44:56.021Z,18.20
2022-12-08T04:47:24.251Z,15.47
2022-12-08T04:49:52.498Z,19.27
2022-12-08T04:52:20.708Z,19.10
2022-12-08T04:54:48.986Z,17.50
2022-12-08T04:57:17.286Z,17.60
2022-12-08T04:59:45.639Z,17.40
2022-12-08T05:02:15.367Z,17.40
2022-12-08T05:04:43.719Z,18.63
2022-12-08T05:07:11.900Z,16.80
2022-12-08T05:09:40.150Z,16.43
2022-12-08T05:12:08.618Z,13.63
2022-12-08T05:14:36.855Z,13.97
2022-12-08T05:17:09.567Z,16.67
2022-12-08T05:19:46.544Z,16.10
2022-12-08T05:22:17.543Z,16.73
2022-12-08T05:24:47.628Z,17.43
2022-12-08T05:27:16.789Z,16.43
2022-12-08T05:29:48.092Z,17.63
2022-12-08T05:32:16.312Z,17.57
2022-12-08T05:34:44.660Z,16.67
2022-12-08T05:37:14.346Z,14.53
2022-12-08T05:39:42.574Z,15.27
2022-12-08T05:42:10.852Z,14.40
2022-12-08T05:44:39.045Z,14.97
2022-12-08T05:47:07.240Z,14.53
2022-12-08T05:49:36.585Z,13.80
2022-12-08T05:52:04.897Z,14.13
2022-12-08T05:54:34.486Z,16.00
2022-12-08T05:57:02.711Z,16.00
2022-12-08T05:59:31.117Z,14.13
2022-12-08T06:01:59.633Z,16.07
2022-12-08T06:04:27.948Z,15.43
2022-12-08T06:06:56.116Z,16.50
2022-12-08T06:09:24.313Z,15.80
2022-12-08T06:11:54.976Z,16.03
2022-12-08T06:14:23.276Z,17.53
2022-12-08T06:16:51.696Z,16.50
2022-12-08T06:19:19.999Z,16.37
2022-12-08T06:21:48.229Z,16.00
2022-12-08T06:24:16.544Z,16.27
2022-12-08T06:26:44.720Z,16.47
2022-12-08T06:29:14.718Z,15.47
2022-12-08T06:31:43.057Z,15.90
2022-12-08T06:34:11.355Z,17.70
2022-12-08T06:36:39.568Z,16.90
2022-12-08T06:39:07.827Z,15.30
2022-12-08T06:41:56.000Z,16.77
2022-12-08T06:44:27.473Z,13.60
2022-12-08T06:46:56.890Z,16.03
2022-12-08T06:49:25.149Z,15.80
2022-12-08T06:51:53.394Z,16.47
2022-12-08T06:54:21.568Z,16.20
2022-12-08T06:56:49.835Z,16.67
2022-12-08T06:59:19.542Z,14.50
2022-12-08T07:01:49.276Z,15.83
2022-12-08T07:04:17.640Z,16.37
2022-12-08T07:06:45.933Z,15.20
2022-12-08T07:09:14.298Z,17.00
2022-12-08T07:11:42.763Z,16.60
2022-12-08T07:14:11.780Z,15.00
2022-12-08T07:16:40.173Z,13.53
2022-12-08T07:19:09.814Z,11.00
2022-12-08T07:21:38.312Z,17.13
2022-12-08T07:24:06.891Z,16.03
2022-12-08T07:26:35.137Z,15.90
2022-12-08T07:29:03.598Z,12.70
2022-12-08T07:31:31.950Z,13.63
2022-12-08T07:34:00.220Z,13.77
2022-12-08T07:36:29.880Z,14.20
2022-12-08T07:38:58.130Z,13.37
2022-12-08T07:41:27.581Z,13.87
2022-12-08T07:43:55.951Z,15.03
2022-12-08T07:46:25.174Z,12.80
2022-12-08T07:48:53.775Z,14.00
2022-12-08T07:51:22.219Z,14.10
2022-12-08T07:53:54.455Z,13.83
2022-12-08T07:56:23.501Z,13.47
2022-12-08T07:58:51.794Z,13.93
2022-12-08T08:01:21.461Z,13.37
2022-12-08T08:03:49.788Z,12.30
2022-12-08T08:06:18.628Z,12.70
2022-12-08T08:08:46.854Z,13.73
2022-12-08T08:11:20.804Z,17.07
2022-12-08T08:13:49.943Z,16.33
2022-12-08T08:16:18.596Z,14.90
2022-12-08T08:18:48.214Z,13.07
2022-12-08T08:21:43.690Z,12.20
2022-12-08T08:24:04.862Z,13.00
2022-12-08T08:26:34.518Z,12.87
2022-12-08T08:29:02.730Z,12.43
2022-12-08T08:31:31.206Z,11.70
2022-12-08T08:34:04.794Z,11.40
2022-12-08T08:36:33.096Z,13.67
2022-12-08T08:39:01.396Z,13.30
2022-12-08T08:41:29.638Z,14.63
2022-12-08T08:43:59.196Z,14.77
2022-12-08T08:46:27.489Z,13.37
2022-12-08T08:48:55.732Z,13.60
2022-12-08T08:51:23.983Z,14.40
2022-12-08T08:53:52.229Z,15.03
2022-12-08T08:56:20.905Z,14.70
2022-12-08T08:58:49.705Z,14.73
2022-12-08T09:01:21.052Z,13.83
2022-12-08T09:03:49.555Z,16.03
2022-12-08T09:06:18.497Z,16.10
2022-12-08T09:08:47.535Z,13.50
2022-12-08T09:11:16.170Z,15.80
2022-12-08T09:13:44.373Z,14.90
2022-12-08T09:16:12.843Z,13.00
2022-12-08T09:18:42.539Z,15.90
2022-12-08T09:21:14.837Z,14.93
2022-12-08T09:23:43.070Z,14.20
2022-12-08T09:26:11.316Z,15.50
2022-12-08T09:28:39.808Z,14.33
2022-12-08T09:31:08.148Z,15.67
2022-12-08T09:33:36.467Z,14.57
2022-12-08T09:36:06.299Z,16.37
2022-12-08T09:38:34.553Z,15.97
2022-12-08T09:41:04.936Z,16.87
2022-12-08T09:43:45.367Z,15.50
2022-12-08T09:46:16.256Z,16.93
2022-12-08T09:48:47.966Z,16.17
2022-12-08T09:51:17.878Z,14.40
2022-12-08T09:53:48.274Z,17.10
2022-12-08T09:56:18.526Z,16.70
2022-12-08T09:58:50.276Z,18.27
2022-12-08T10:01:19.515Z,15.73
2022-12-08T10:03:48.135Z,17.17
2022-12-08T10:06:23.102Z,14.70
2022-12-08T10:08:57.434Z,19.17
2022-12-08T10:11:28.591Z,18.43
2022-12-08T10:13:58.602Z,18.43
2022-12-08T10:16:31.945Z,14.87
2022-12-08T10:19:03.339Z,17.27
2022-12-08T10:21:33.775Z,16.40
2022-12-08T10:24:05.823Z,18.77
2022-12-08T10:26:34.099Z,15.17
2022-12-08T10:29:03.224Z,14.57
2022-12-08T10:31:32.140Z,16.17
2022-12-08T10:34:01.970Z,16.63
2022-12-08T10:36:45.060Z,16.10
2022-12-08T10:39:30.809Z,17.37
2022-12-08T10:42:02.179Z,15.77
2022-12-08T10:44:30.655Z,15.43
2022-12-08T10:46:59.002Z,18.00
2022-12-08T10:49:28.728Z,18.00
2022-12-08T10:51:57.860Z,14.33
2022-12-08T10:54:31.521Z,16.70
2022-12-08T10:56:59.834Z,15.20
2022-12-08T10:59:28.164Z,15.60
2022-12-08T11:01:57.805Z,15.50
2022-12-08T11:04:28.683Z,18.10
2022-12-08T11:06:56.983Z,15.43
2022-12-08T11:09:28.153Z,14.43
2022-12-08T11:11:59.216Z,13.43
2022-12-08T11:14:28.606Z,14.53
2022-12-08T11:16:58.876Z,16.80
2022-12-08T11:19:28.608Z,16.77
2022-12-08T11:21:56.943Z,15.00
2022-12-08T11:24:26.276Z,13.30
2022-12-08T11:26:55.680Z,13.67
2022-12-08T11:29:25.267Z,13.23
2022-12-08T11:31:55.224Z,15.70
2022-12-08T11:34:27.951Z,16.43
2022-12-08T11:36:57.078Z,14.00
2022-12-08T11:39:27.565Z,14.87
2022-12-08T11:41:56.288Z,13.73
2022-12-08T11:44:30.728Z,15.63
2022-12-08T11:47:01.611Z,14.67
2022-12-08T11:49:35.027Z,14.17
2022-12-08T11:52:05.351Z,13.00
2022-12-08T11:54:35.984Z,13.17
2022-12-08T11:57:05.293Z,14.17
2022-12-08T11:59:38.127Z,13.40
2022-12-08T12:02:07.282Z,14.37
2022-12-08T12:04:39.348Z,14.50
2022-12-08T12:07:19.405Z,15.60
2022-12-08T12:09:58.848Z,13.60
2022-12-08T12:12:39.487Z,13.87
2022-12-08T12:15:37.988Z,13.83
2022-12-08T12:18:10.742Z,12.87
2022-12-08T12:20:44.724Z,14.67
2022-12-08T12:23:17.917Z,15.30
2022-12-08T12:25:51.911Z,15.03
2022-12-08T12:28:20.275Z,13.30
2022-12-08T12:30:55.555Z,14.20
2022-12-08T12:33:24.483Z,12.57
2022-12-08T12:35:52.834Z,14.03
2022-12-08T12:38:42.512Z,13.90
2022-12-08T12:41:12.006Z,12.93
2022-12-08T12:43:40.715Z,12.97
2022-12-08T12:46:27.782Z,12.00
2022-12-08T12:49:17.374Z,11.30
2022-12-08T12:51:46.847Z,9.90
2022-12-08T12:54:22.370Z,9.63
2022-12-08T12:56:51.995Z,9.33
2022-12-08T12:59:24.291Z,11.10
2022-12-08T13:01:56.809Z,10.87
2022-12-08T13:04:37.759Z,9.80
2022-12-08T13:07:06.476Z,9.53
2022-12-08T13:09:36.893Z,9.70
2022-12-08T13:12:10.894Z,9.23
2022-12-08T13:14:40.730Z,9.37
2022-12-08T13:17:12.070Z,8.70
2022-12-08T13:19:44.377Z,8.17
2022-12-08T13:22:33.403Z,8.47
2022-12-08T13:25:16.529Z,10.77
2022-12-08T13:27:53.586Z,8.70
2022-12-08T13:30:41.014Z,8.67
2022-12-08T13:33:19.654Z,9.07
2022-12-08T13:35:55.496Z,7.77
2022-12-08T13:38:27.353Z,9.00
2022-12-08T13:40:56.285Z,8.20
2022-12-08T13:43:36.221Z,8.20
2022-12-08T13:46:57.867Z,8.57
2022-12-08T13:53:41.724Z,8.10
2022-12-08T13:55:27.046Z,7.90
2022-12-08T13:57:32.737Z,8.33
2022-12-08T14:00:02.258Z,9.20
2022-12-08T14:02:32.575Z,8.77
2022-12-08T14:05:34.928Z,8.83
2022-12-08T14:07:53.140Z,8.50
2022-12-08T14:10:22.511Z,7.30
2022-12-08T14:12:56.740Z,7.07
2022-12-08T14:15:27.797Z,6.90
2022-12-08T14:17:59.076Z,7.77
2022-12-08T14:20:28.927Z,7.77
2022-12-08T14:22:59.928Z,7.70
2022-12-08T14:25:28.831Z,7.73
2022-12-08T14:27:58.955Z,7.37
2022-12-08T14:30:28.311Z,7.90
2022-12-08T14:32:58.360Z,7.20
2022-12-08T14:35:27.709Z,6.63
2022-12-08T14:37:56.887Z,6.00
2022-12-08T14:40:29.084Z,7.87
2022-12-08T14:43:07.526Z,6.90
2022-12-08T14:45:36.110Z,6.90
2022-12-08T14:48:19.242Z,6.40
2022-12-08T14:50:57.064Z,5.90
2022-12-08T14:53:25.448Z,6.60
2022-12-08T14:55:55.074Z,7.40
2022-12-08T14:58:27.725Z,7.63
2022-12-08T15:00:58.451Z,8.63
2022-12-08T15:03:27.748Z,11.27
2022-12-08T15:05:57.950Z,14.10
2022-12-08T15:08:26.279Z,10.83
2022-12-08T15:11:12.933Z,10.50
2022-12-08T15:13:47.198Z,11.70
2022-12-08T15:16:26.035Z,9.17
2022-12-08T15:19:03.022Z,9.90
2022-12-08T15:21:32.491Z,9.10
2022-12-08T15:24:00.778Z,8.53
2022-12-08T15:26:29.301Z,8.37
2022-12-08T15:28:58.899Z,8.67
2022-12-08T15:31:27.175Z,7.83
2022-12-08T15:33:55.520Z,8.37
2022-12-08T15:36:23.733Z,8.97
2022-12-08T15:38:52.025Z,6.90
2022-12-08T15:41:31.096Z,9.83
2022-12-08T15:44:00.643Z,9.30
2022-12-08T15:46:29.081Z,9.10
2022-12-08T15:48:58.347Z,8.83
2022-12-08T15:51:26.752Z,9.80
2022-12-08T15:53:55.295Z,9.33
2022-12-08T15:56:28.049Z,9.00
2022-12-08T15:58:57.867Z,8.90
2022-12-08T16:01:28.214Z,9.73
2022-12-08T16:09:34.873Z,9.43
2022-12-08T16:12:21.065Z,8.50
2022-12-08T16:17:39.830Z,9.27
2022-12-08T16:20:13.957Z,9.47
2022-12-08T16:23:13.029Z,10.13
2022-12-08T16:25:46.242Z,11.30
2022-12-08T16:28:52.287Z,10.00
2022-12-08T16:31:13.002Z,9.03
2022-12-08T16:33:43.504Z,9.40
2022-12-08T16:36:12.234Z,10.50
2022-12-08T16:38:41.556Z,10.90
2022-12-08T16:41:31.847Z,8.50
2022-12-08T16:44:02.711Z,10.50
2022-12-08T16:46:31.085Z,9.70
2022-12-08T16:49:01.829Z,12.17
2022-12-08T16:51:30.108Z,9.90
2022-12-08T16:53:58.730Z,10.57
2022-12-08T16:56:32.530Z,9.57
2022-12-08T16:59:01.929Z,10.37
2022-12-08T17:01:30.402Z,9.83
2022-12-08T17:04:29.810Z,11.00
2022-12-08T17:06:50.553Z,11.20
2022-12-08T17:09:18.834Z,11.87
2022-12-08T17:11:47.045Z,12.30
2022-12-08T17:14:15.356Z,13.00
2022-12-08T17:16:44.155Z,11.80
2022-12-08T17:19:15.122Z,10.13
2022-12-08T17:21:51.723Z,11.30
2022-12-08T17:24:22.213Z,11.37
2022-12-08T17:26:53.702Z,11.17
2022-12-08T17:29:21.937Z,14.10
2022-12-08T17:31:59.499Z,14.03
2022-12-08T17:34:27.822Z,12.60
2022-12-08T17:36:57.449Z,13.67
2022-12-08T17:39:26.776Z,11.57
2022-12-08T17:41:55.054Z,13.70
2022-12-08T17:44:23.327Z,11.23
2022-12-08T17:46:53.476Z,13.27
2022-12-08T17:49:23.586Z,19.23
2022-12-08T17:51:52.503Z,13.20
2022-12-08T17:54:22.338Z,12.70
2022-12-08T17:56:50.750Z,14.17
2022-12-08T17:59:19.309Z,12.23
2022-12-08T18:01:47.657Z,12.93
2022-12-08T18:04:15.982Z,12.90
2022-12-08T18:06:44.185Z,11.60
2022-12-08T18:09:12.484Z,11.30
2022-12-08T18:11:42.137Z,12.83
2022-12-08T18:14:10.777Z,13.03
2022-12-08T18:16:39.642Z,10.70
2022-12-08T18:19:08.480Z,12.70
2022-12-08T18:21:36.897Z,11.70
2022-12-08T18:24:05.524Z,12.10
2022-12-08T18:26:33.779Z,11.63
2022-12-08T18:29:03.701Z,12.10
2022-12-08T18:31:32.094Z,12.67
2022-12-08T18:34:00.453Z,13.27
2022-12-08T18:36:28.757Z,14.10
2022-12-08T18:38:57.175Z,13.67
2022-12-08T18:41:26.725Z,12.27
2022-12-08T18:43:55.597Z,12.80
2022-12-08T18:46:26.004Z,13.03
2022-12-08T18:48:54.220Z,12.20
2022-12-08T18:51:23.324Z,12.67
2022-12-08T18:53:51.915Z,13.03
2022-12-08T18:56:22.378Z,12.00
2022-12-08T18:58:50.604Z,10.70
2022-12-08T19:01:19.211Z,12.70
2022-12-08T19:04:20.052Z,11.63
2022-12-08T19:06:47.073Z,11.30
2022-12-08T19:09:15.812Z,11.17
2022-12-08T19:11:44.276Z,11.83
2022-12-08T19:14:14.572Z,11.83
2022-12-08T19:16:42.872Z,12.10
2022-12-08T19:19:12.607Z,13.30
2022-12-08T19:21:46.068Z,11.90
2022-12-08T19:24:15.220Z,11.67
2022-12-08T19:26:44.031Z,13.17
2022-12-08T19:29:12.623Z,13.17
2022-12-08T19:31:41.405Z,11.93
2022-12-08T19:34:09.749Z,12.60
2022-12-08T19:36:42.577Z,12.47
2022-12-08T19:39:32.098Z,12.80
2022-12-08T19:42:17.805Z,15.13
2022-12-08T19:44:54.035Z,13.43
2022-12-08T19:47:22.743Z,12.67
2022-12-08T19:49:51.122Z,12.47
2022-12-08T19:52:20.744Z,13.07
2022-12-08T19:54:49.129Z,12.07
2022-12-08T19:57:17.478Z,11.57
2022-12-08T19:59:45.724Z,11.80
2022-12-08T20:02:14.125Z,12.23
2022-12-08T20:04:42.478Z,14.33
2022-12-08T20:07:13.912Z,11.93
2022-12-08T20:09:43.886Z,11.17
2022-12-08T20:12:12.257Z,12.50
2022-12-08T20:14:45.699Z,13.90
2022-12-08T20:17:14.519Z,13.03
2022-12-08T20:19:42.876Z,12.60
2022-12-08T20:22:11.157Z,13.50
2022-12-08T20:24:39.640Z,11.37
2022-12-08T20:27:09.311Z,12.87
2022-12-08T20:29:37.597Z,15.13
2022-12-08T20:32:06.014Z,15.73
2022-12-08T20:34:35.085Z,13.53
2022-12-08T20:37:03.585Z,13.60
2022-12-08T20:39:31.835Z,12.77
2022-12-08T20:42:00.293Z,13.70
2022-12-08T20:44:30.249Z,13.20
2022-12-08T20:46:58.934Z,12.60
2022-12-08T20:49:32.775Z,13.70
2022-12-08T20:52:02.944Z,12.83
2022-12-08T20:54:31.361Z,14.53
2022-12-08T20:56:59.857Z,15.23
2022-12-08T20:59:28.124Z,14.00
2022-12-08T21:01:57.742Z,14.57
2022-12-08T21:04:26.404Z,13.43
2022-12-08T21:06:54.778Z,14.60
2022-12-08T21:09:23.147Z,12.60
2022-12-08T21:11:51.562Z,15.40
2022-12-08T21:14:19.769Z,15.10
2022-12-08T21:16:49.873Z,13.13
2022-12-08T21:19:19.963Z,15.70
2022-12-08T21:21:50.510Z,15.60
2022-12-08T21:24:19.019Z,13.60
2022-12-08T21:26:47.428Z,15.33
2022-12-08T21:29:15.833Z,13.53
2022-12-08T21:31:44.273Z,13.73
2022-12-08T21:34:13.098Z,14.10
2022-12-08T21:36:42.792Z,14.83
2022-12-08T21:39:13.022Z,16.27
2022-12-08T21:41:59.860Z,15.17
2022-12-08T21:44:28.111Z,12.93
2022-12-08T21:46:56.613Z,13.43
2022-12-08T21:49:25.072Z,15.07
2022-12-08T21:51:54.673Z,14.00
2022-12-08T21:54:23.036Z,13.47
2022-12-08T21:56:51.735Z,12.40
2022-12-08T21:59:20.838Z,13.83
2022-12-08T22:01:49.701Z,14.73
2022-12-08T22:04:19.132Z,12.93
2022-12-08T22:06:47.751Z,14.60
2022-12-08T22:09:17.450Z,13.50
2022-12-08T22:11:45.929Z,12.90
2022-12-08T22:14:15.346Z,12.83
2022-12-08T22:16:44.297Z,14.27
2022-12-08T22:19:13.197Z,13.00
2022-12-08T22:21:41.750Z,12.67
2022-12-08T22:24:10.315Z,13.93
2022-12-08T22:26:40.193Z,13.60
2022-12-08T22:29:08.908Z,12.40
2022-12-08T22:31:37.213Z,12.73
2022-12-08T22:34:05.927Z,13.10
2022-12-08T22:36:34.353Z,12.47
2022-12-08T22:39:03.245Z,13.37
2022-12-08T22:41:31.440Z,13.73
2022-12-08T22:44:01.001Z,12.47
2022-12-08T22:46:29.349Z,13.83
2022-12-08T22:48:57.570Z,13.57
2022-12-08T22:51:25.738Z,11.53
2022-12-08T22:53:54.333Z,11.97
2022-12-08T22:56:22.777Z,12.70
2022-12-08T22:58:51.243Z,14.00
2022-12-08T23:01:25.568Z,15.07
2022-12-08T23:03:54.229Z,13.90
2022-12-08T23:06:22.763Z,11.30
2022-12-08T23:08:51.750Z,10.50
2022-12-08T23:11:20.994Z,11.23
2022-12-08T23:13:49.237Z,10.10
2022-12-08T23:16:20.877Z,11.47
2022-12-08T23:18:50.593Z,10.77
2022-12-08T23:21:19.844Z,11.20
2022-12-08T23:23:48.339Z,10.30
2022-12-08T23:26:17.972Z,9.93
2022-12-08T23:28:46.528Z,11.00
2022-12-08T23:31:15.318Z,12.33
2022-12-08T23:33:44.267Z,12.63
2022-12-08T23:36:14.729Z,12.17
2022-12-08T23:38:43.210Z,13.10
2022-12-08T23:41:12.760Z,13.47
2022-12-08T23:43:44.606Z,12.50
2022-12-08T23:46:13.173Z,13.20
2022-12-08T23:48:41.771Z,11.73
2022-12-08T23:51:10.155Z,12.17
2022-12-08T23:53:39.808Z,13.07
2022-12-08T23:56:09.043Z,13.47
2022-12-08T23:58:37.726Z,11.67
